createdAt,value
2019-01-08T00:00:58.237Z,45.10
2019-01-08T00:01:58.247Z,44.40
2019-01-08T00:02:58.206Z,43.90
2019-01-08T00:03:58.189Z,43.80
2019-01-08T00:04:58.186Z,42.00
2019-01-08T00:05:58.175Z,43.80
2019-01-08T00:06:58.169Z,43.60
2019-01-08T00:07:58.170Z,43.50
2019-01-08T00:08:58.141Z,41.40
2019-01-08T00:09:58.125Z,42.60
2019-01-08T00:10:58.114Z,41.40
2019-01-08T00:11:58.103Z,41.20
2019-01-08T00:12:58.119Z,41.70
2019-01-08T00:13:58.087Z,40.80
2019-01-08T00:14:58.076Z,41.10
2019-01-08T00:15:58.058Z,39.60
2019-01-08T00:16:58.048Z,39.30
2019-01-08T00:17:58.051Z,39.60
2019-01-08T00:18:58.404Z,39.70
2019-01-08T00:19:58.021Z,40.10
2019-01-08T00:20:58.003Z,38.40
2019-01-08T00:21:57.991Z,38.50
2019-01-08T00:22:57.998Z,40.00
2019-01-08T00:23:57.972Z,37.60
2019-01-08T00:24:57.977Z,37.60
2019-01-08T00:25:57.949Z,38.80
2019-01-08T00:26:57.940Z,38.30
2019-01-08T00:27:57.968Z,37.20
2019-01-08T00:28:57.917Z,36.20
2019-01-08T00:29:57.906Z,36.80
2019-01-08T00:30:57.908Z,37.40
2019-01-08T00:31:57.887Z,36.60
2019-01-08T00:32:57.875Z,36.60
2019-01-08T00:33:57.876Z,37.50
2019-01-08T00:34:57.858Z,35.30
2019-01-08T00:35:57.848Z,36.20
2019-01-08T00:36:57.844Z,34.60
2019-01-08T00:37:57.818Z,35.20
2019-01-08T00:38:57.822Z,33.30
2019-01-08T00:39:57.797Z,34.30
2019-01-08T00:40:57.794Z,34.70
2019-01-08T00:41:57.774Z,35.10
2019-01-08T00:42:57.779Z,34.50
2019-01-08T00:43:57.772Z,32.80
2019-01-08T00:44:57.742Z,34.50
2019-01-08T00:45:57.731Z,33.30
2019-01-08T00:46:57.721Z,33.30
2019-01-08T00:47:57.715Z,32.50
2019-01-08T00:48:57.800Z,32.20
2019-01-08T00:49:57.687Z,33.00
2019-01-08T00:50:57.675Z,31.60
2019-01-08T00:51:57.668Z,30.80
2019-01-08T00:52:57.660Z,31.80
2019-01-08T00:53:57.660Z,32.20
2019-01-08T00:54:57.651Z,32.60
2019-01-08T00:55:57.621Z,31.10
2019-01-08T00:56:57.610Z,31.10
2019-01-08T00:57:57.599Z,30.40
2019-01-08T00:58:57.609Z,31.10
2019-01-08T00:59:57.576Z,30.20
2019-01-08T01:00:57.579Z,30.90
2019-01-08T01:01:57.556Z,29.80
2019-01-08T01:02:57.544Z,30.60
2019-01-08T01:03:57.548Z,29.40
2019-01-08T01:04:57.528Z,29.40
2019-01-08T01:05:57.510Z,28.80
2019-01-08T01:06:57.516Z,28.10
2019-01-08T01:07:57.489Z,29.00
2019-01-08T01:08:57.492Z,29.00
2019-01-08T01:09:57.476Z,28.40
2019-01-08T01:10:57.454Z,28.20
2019-01-08T01:11:57.446Z,27.70
2019-01-08T01:12:57.450Z,28.00
2019-01-08T01:13:57.444Z,28.10
2019-01-08T01:14:57.411Z,27.40
2019-01-08T01:15:57.400Z,27.30
2019-01-08T01:16:57.390Z,26.70
2019-01-08T01:17:57.379Z,27.00
2019-01-08T01:18:57.409Z,27.80
2019-01-08T01:19:57.363Z,26.30
2019-01-08T01:20:57.348Z,26.60
2019-01-08T01:21:57.335Z,26.20
2019-01-08T01:22:57.330Z,26.50
2019-01-08T01:23:57.311Z,25.20
2019-01-08T01:24:57.328Z,26.30
2019-01-08T01:25:57.292Z,25.50
2019-01-08T01:26:57.288Z,25.80
2019-01-08T01:27:57.269Z,25.90
2019-01-08T01:29:00.115Z,25.80
2019-01-08T01:29:57.263Z,24.50
2019-01-08T01:30:57.253Z,25.30
2019-01-08T01:31:57.225Z,23.80
2019-01-08T01:32:57.214Z,25.30
2019-01-08T01:33:57.286Z,24.30
2019-01-08T01:34:57.208Z,23.20
2019-01-08T01:35:57.189Z,23.80
2019-01-08T01:36:57.185Z,23.60
2019-01-08T01:37:57.160Z,24.20
2019-01-08T01:38:57.150Z,24.10
2019-01-08T01:39:57.155Z,22.50
2019-01-08T01:40:57.133Z,23.10
2019-01-08T01:41:57.119Z,23.00
2019-01-08T01:42:57.115Z,23.30
2019-01-08T01:43:57.101Z,22.50
2019-01-08T01:44:57.127Z,22.40
2019-01-08T01:45:57.074Z,22.60
2019-01-08T01:46:57.062Z,22.40
2019-01-08T01:47:57.053Z,22.40
2019-01-08T01:48:57.046Z,22.20
2019-01-08T01:49:57.030Z,22.00
2019-01-08T01:50:57.034Z,20.80
2019-01-08T01:51:57.013Z,21.90
2019-01-08T01:52:56.999Z,21.20
2019-01-08T01:53:56.985Z,20.70
2019-01-08T01:54:56.982Z,21.70
2019-01-08T01:55:56.981Z,20.30
2019-01-08T01:56:56.957Z,20.80
2019-01-08T01:57:56.943Z,21.40
2019-01-08T01:58:56.937Z,20.30
2019-01-08T01:59:56.919Z,20.10
2019-01-08T02:00:56.934Z,20.00
2019-01-08T02:01:56.904Z,20.10
2019-01-08T02:02:56.892Z,20.30
2019-01-08T02:03:56.877Z,18.60
2019-01-08T02:04:56.864Z,20.20
2019-01-08T02:05:56.874Z,19.00
2019-01-08T02:06:56.862Z,19.40
2019-01-08T02:07:56.832Z,18.20
2019-01-08T02:08:56.828Z,19.50
2019-01-08T02:09:56.811Z,18.40
2019-01-08T02:10:56.815Z,18.00
2019-01-08T02:11:56.788Z,18.70
2019-01-08T02:12:56.791Z,18.20
2019-01-08T02:13:56.766Z,18.10
2019-01-08T02:14:56.757Z,17.40
2019-01-08T02:15:57.043Z,16.70
2019-01-08T02:16:56.733Z,16.90
2019-01-08T02:17:56.723Z,17.20
2019-01-08T02:18:56.724Z,17.90
2019-01-08T02:19:56.709Z,16.70
2019-01-08T02:20:56.690Z,16.10
2019-01-08T02:21:56.694Z,16.50
2019-01-08T02:22:56.668Z,17.30
2019-01-08T02:23:56.666Z,16.70
2019-01-08T02:24:56.661Z,16.50
2019-01-08T02:25:56.633Z,16.00
2019-01-08T02:26:56.641Z,15.60
2019-01-08T02:27:56.616Z,15.70
2019-01-08T02:28:56.606Z,15.40
2019-01-08T02:29:56.591Z,15.50
2019-01-08T02:30:56.597Z,15.70
2019-01-08T02:31:56.585Z,14.90
2019-01-08T02:32:56.558Z,15.40
2019-01-08T02:33:56.553Z,15.40
2019-01-08T02:34:56.536Z,14.80
2019-01-08T02:35:56.527Z,14.40
2019-01-08T02:36:56.539Z,14.20
2019-01-08T02:37:56.504Z,13.80
2019-01-08T02:38:56.494Z,14.20
2019-01-08T02:39:56.482Z,14.20
2019-01-08T02:40:56.472Z,14.60
2019-01-08T02:41:56.659Z,14.60
2019-01-08T02:42:56.450Z,13.70
2019-01-08T02:43:56.466Z,13.80
2019-01-08T02:44:56.428Z,14.10
2019-01-08T02:45:56.518Z,14.20
2019-01-08T02:46:56.425Z,13.10
2019-01-08T02:47:56.395Z,13.50
2019-01-08T02:48:56.391Z,13.50
2019-01-08T02:49:56.387Z,12.50
2019-01-08T02:50:56.368Z,13.60
2019-01-08T02:51:56.375Z,12.80
2019-01-08T02:52:56.340Z,13.10
2019-01-08T02:53:56.328Z,12.90
2019-01-08T02:54:56.318Z,13.00
2019-01-08T02:55:56.321Z,12.60
2019-01-08T02:56:56.315Z,12.60
2019-01-08T02:57:56.284Z,12.40
2019-01-08T02:58:56.275Z,13.20
2019-01-08T02:59:56.263Z,12.00
2019-01-08T03:00:56.254Z,12.00
2019-01-08T03:01:56.262Z,11.80
2019-01-08T03:02:56.253Z,11.90
2019-01-08T03:03:56.218Z,11.50
2019-01-08T03:04:56.209Z,11.90
2019-01-08T03:05:56.207Z,12.30
2019-01-08T03:06:56.189Z,11.50
2019-01-08T03:07:56.200Z,12.00
2019-01-08T03:08:56.171Z,11.90
2019-01-08T03:09:56.153Z,11.20
2019-01-08T03:10:56.149Z,11.90
2019-01-08T03:11:56.130Z,11.10
2019-01-08T03:12:56.136Z,11.70
2019-01-08T03:13:56.121Z,10.70
2019-01-08T03:14:56.101Z,11.10
2019-01-08T03:15:56.089Z,10.40
2019-01-08T03:16:56.076Z,11.00
2019-01-08T03:17:56.081Z,10.80
2019-01-08T03:18:56.055Z,10.60
2019-01-08T03:19:56.062Z,10.60
2019-01-08T03:20:56.032Z,10.50
2019-01-08T03:21:56.023Z,10.30
2019-01-08T03:22:56.028Z,10.10
2019-01-08T03:23:56.006Z,9.80
2019-01-08T03:24:55.989Z,9.50
2019-01-08T03:25:55.998Z,9.80
2019-01-08T03:26:55.974Z,9.10
2019-01-08T03:27:55.972Z,9.90
2019-01-08T03:28:55.945Z,9.60
2019-01-08T03:29:55.934Z,9.50
2019-01-08T03:30:55.924Z,8.90
2019-01-08T03:31:55.923Z,9.50
2019-01-08T03:32:55.918Z,9.50
2019-01-08T03:33:55.892Z,9.50
2019-01-08T03:34:55.879Z,9.00
2019-01-08T03:35:55.869Z,8.70
2019-01-08T03:36:55.859Z,8.70
2019-01-08T03:37:55.880Z,8.30
2019-01-08T03:38:55.837Z,8.50
2019-01-08T03:39:55.825Z,8.80
2019-01-08T03:40:55.821Z,8.40
2019-01-08T03:41:55.805Z,8.20
2019-01-08T03:42:55.807Z,8.40
2019-01-08T03:43:55.799Z,8.00
2019-01-08T03:44:55.773Z,8.40
2019-01-08T03:45:55.765Z,8.40
2019-01-08T03:46:55.747Z,7.80
2019-01-08T03:47:55.762Z,8.50
2019-01-08T03:48:55.728Z,8.70
2019-01-08T03:49:55.734Z,7.70
2019-01-08T03:50:55.706Z,8.20
2019-01-08T03:51:55.692Z,8.00
2019-01-08T03:52:55.718Z,7.70
2019-01-08T03:53:55.670Z,7.70
2019-01-08T03:54:55.666Z,7.50
2019-01-08T03:55:55.664Z,7.00
2019-01-08T03:56:55.638Z,7.80
2019-01-08T03:57:55.641Z,7.30
2019-01-08T03:58:55.640Z,7.00
2019-01-08T03:59:55.607Z,6.70
2019-01-08T04:00:55.604Z,7.40
2019-01-08T04:01:55.592Z,6.80
2019-01-08T04:02:55.571Z,6.90
2019-01-08T04:03:55.575Z,6.80
2019-01-08T04:04:55.552Z,6.90
2019-01-08T04:05:55.543Z,7.00
2019-01-08T04:06:55.536Z,6.90
2019-01-08T04:07:55.530Z,6.50
2019-01-08T04:08:55.523Z,6.60
2019-01-08T04:09:55.494Z,6.40
2019-01-08T04:10:55.484Z,6.80
2019-01-08T04:11:55.473Z,6.30
2019-01-08T04:12:55.460Z,5.90
2019-01-08T04:13:55.481Z,6.40
2019-01-08T04:14:55.439Z,6.40
2019-01-08T04:15:55.428Z,6.10
2019-01-08T04:16:55.418Z,5.90
2019-01-08T04:17:55.406Z,5.90
2019-01-08T04:18:55.409Z,6.10
2019-01-08T04:19:55.390Z,6.10
2019-01-08T04:20:55.371Z,6.00
2019-01-08T04:21:55.361Z,5.80
2019-01-08T04:22:55.356Z,5.90
2019-01-08T04:23:55.354Z,5.50
2019-01-08T04:24:55.327Z,5.40
2019-01-08T04:25:55.328Z,5.30
2019-01-08T04:26:55.306Z,5.40
2019-01-08T04:27:55.300Z,5.70
2019-01-08T04:28:55.306Z,5.20
2019-01-08T04:29:55.279Z,5.50
2019-01-08T04:30:55.268Z,5.20
2019-01-08T04:31:55.269Z,4.90
2019-01-08T04:32:55.240Z,5.10
2019-01-08T04:33:55.246Z,5.20
2019-01-08T04:34:55.225Z,4.90
2019-01-08T04:35:55.208Z,4.90
2019-01-08T04:36:55.195Z,4.90
2019-01-08T04:37:55.191Z,4.90
2019-01-08T04:38:55.196Z,4.90
2019-01-08T04:39:55.164Z,4.50
2019-01-08T04:40:55.159Z,4.60
2019-01-08T04:41:55.141Z,4.90
2019-01-08T04:42:55.128Z,4.90
2019-01-08T04:43:55.143Z,4.10
2019-01-08T04:44:55.108Z,4.50
2019-01-08T04:45:55.100Z,4.50
2019-01-08T04:46:55.093Z,4.50
2019-01-08T04:47:55.076Z,4.40
2019-01-08T04:48:55.106Z,4.70
2019-01-08T04:49:55.062Z,4.20
2019-01-08T04:50:55.042Z,4.30
2019-01-08T04:51:55.038Z,4.30
2019-01-08T04:52:55.019Z,4.30
2019-01-08T04:53:55.016Z,4.50
2019-01-08T04:54:55.023Z,4.30
2019-01-08T04:55:54.992Z,4.20
2019-01-08T04:56:54.981Z,4.30
2019-01-08T04:57:54.967Z,4.10
2019-01-08T04:58:54.960Z,3.80
2019-01-08T04:59:59.115Z,3.70
2019-01-08T05:00:54.931Z,4.20
2019-01-08T05:01:54.928Z,4.00
2019-01-08T05:02:54.911Z,3.80
2019-01-08T05:03:54.897Z,3.60
2019-01-08T05:04:54.900Z,3.80
2019-01-08T05:05:54.875Z,3.80
2019-01-08T05:06:54.871Z,3.70
2019-01-08T05:07:54.867Z,3.50
2019-01-08T05:08:54.845Z,3.90
2019-01-08T05:09:54.847Z,4.00
2019-01-08T05:10:54.828Z,3.60
2019-01-08T05:11:54.809Z,3.30
2019-01-08T05:12:54.798Z,3.80
2019-01-08T05:13:54.806Z,3.20
2019-01-08T05:14:54.791Z,3.30
2019-01-08T05:15:54.767Z,3.20
2019-01-08T05:16:54.760Z,3.30
2019-01-08T05:17:54.749Z,3.50
2019-01-08T05:18:54.732Z,3.20
2019-01-08T05:19:54.753Z,3.20
2019-01-08T05:20:54.710Z,3.10
2019-01-08T05:21:54.702Z,3.40
2019-01-08T05:22:54.993Z,3.20
2019-01-08T05:23:54.678Z,3.40
2019-01-08T05:24:54.690Z,2.90
2019-01-08T05:25:54.685Z,2.90
2019-01-08T05:26:54.660Z,2.90
2019-01-08T05:27:54.634Z,3.10
2019-01-08T05:28:54.630Z,3.20
2019-01-08T05:29:54.624Z,2.80
2019-01-08T05:30:54.605Z,3.20
2019-01-08T05:31:54.587Z,2.70
2019-01-08T05:32:54.588Z,2.90
2019-01-08T05:33:54.565Z,3.10
2019-01-08T05:34:54.575Z,2.80
2019-01-08T05:35:54.543Z,2.50
2019-01-08T05:36:54.535Z,2.50
2019-01-08T05:37:54.521Z,2.70
2019-01-08T05:38:54.526Z,2.70
2019-01-08T05:39:54.520Z,2.70
2019-01-08T05:40:54.488Z,2.50
2019-01-08T05:41:54.477Z,2.50
2019-01-08T05:42:54.467Z,2.50
2019-01-08T05:43:54.454Z,2.70
2019-01-08T05:44:54.478Z,2.30
2019-01-08T05:45:54.436Z,2.40
2019-01-08T05:46:54.422Z,2.20
2019-01-08T05:47:54.507Z,2.70
2019-01-08T05:48:54.406Z,2.20
2019-01-08T05:49:54.410Z,2.30
2019-01-08T05:50:54.386Z,2.20
2019-01-08T05:51:54.373Z,2.30
2019-01-08T05:52:54.361Z,2.40
2019-01-08T05:53:54.350Z,2.40
2019-01-08T05:54:54.355Z,2.10
2019-01-08T05:55:54.324Z,2.10
2019-01-08T05:56:54.326Z,2.00
2019-01-08T05:57:54.307Z,2.20
2019-01-08T05:58:54.289Z,2.10
2019-01-08T05:59:54.312Z,2.20
2019-01-08T06:00:54.269Z,1.90
2019-01-08T06:01:54.267Z,2.00
2019-01-08T06:02:54.252Z,2.00
2019-01-08T06:03:54.237Z,2.10
2019-01-08T06:04:54.229Z,2.10
2019-01-08T06:05:54.230Z,2.10
2019-01-08T06:06:54.202Z,1.80
2019-01-08T06:07:54.192Z,1.80
2019-01-08T06:08:54.206Z,1.80
2019-01-08T06:09:54.172Z,1.60
2019-01-08T06:10:54.178Z,1.50
2019-01-08T06:11:54.146Z,1.90
2019-01-08T06:12:54.145Z,2.00
2019-01-08T06:13:54.124Z,1.80
2019-01-08T06:14:54.122Z,1.70
2019-01-08T06:15:54.118Z,1.60
2019-01-08T06:16:54.090Z,1.40
2019-01-08T06:17:54.079Z,1.50
2019-01-08T06:18:54.071Z,1.70
2019-01-08T06:19:55.177Z,1.40
2019-01-08T06:20:54.079Z,1.40
2019-01-08T06:21:54.036Z,1.70
2019-01-08T06:22:54.034Z,1.50
2019-01-08T06:23:54.014Z,1.60
2019-01-08T06:24:54.004Z,1.30
2019-01-08T06:25:54.015Z,1.40
2019-01-08T06:26:53.988Z,1.30
2019-01-08T06:27:53.969Z,1.30
2019-01-08T06:28:53.958Z,1.40
2019-01-08T06:29:53.949Z,1.30
2019-01-08T06:30:53.960Z,1.40
2019-01-08T06:31:53.932Z,1.30
2019-01-08T06:32:53.921Z,1.30
2019-01-08T06:33:53.904Z,1.20
2019-01-08T06:34:53.899Z,1.10
2019-01-08T06:35:53.905Z,1.30
2019-01-08T06:36:53.870Z,1.30
2019-01-08T06:37:53.859Z,1.20
2019-01-08T06:38:53.857Z,1.20
2019-01-08T06:39:53.836Z,1.20
2019-01-08T06:40:57.669Z,1.20
2019-01-08T06:41:53.814Z,1.30
2019-01-08T06:42:53.805Z,1.00
2019-01-08T06:43:53.791Z,1.00
2019-01-08T06:44:53.794Z,1.30
2019-01-08T06:45:53.795Z,1.10
2019-01-08T06:46:53.760Z,1.20
2019-01-08T06:47:53.750Z,1.10
2019-01-08T06:48:53.740Z,1.10
2019-01-08T06:49:53.733Z,1.00
2019-01-08T06:50:56.205Z,1.20
2019-01-08T06:51:53.704Z,1.10
2019-01-08T06:52:53.693Z,1.00
2019-01-08T06:53:53.685Z,0.90
2019-01-08T06:54:53.671Z,1.20
2019-01-08T06:55:53.676Z,0.90
2019-01-08T06:56:53.660Z,1.00
2019-01-08T06:57:53.640Z,1.10
2019-01-08T06:58:53.634Z,0.90
2019-01-08T06:59:53.617Z,0.90
2019-01-08T07:00:53.622Z,0.90
2019-01-08T07:01:53.601Z,0.90
2019-01-08T07:02:53.600Z,1.00
2019-01-08T07:03:53.578Z,0.70
2019-01-08T07:04:53.562Z,0.90
2019-01-08T07:05:53.594Z,0.80
2019-01-08T07:06:53.540Z,0.90
2019-01-08T07:07:53.529Z,0.80
2019-01-08T07:08:53.529Z,0.80
2019-01-08T07:09:53.511Z,0.70
2019-01-08T07:10:53.495Z,0.80
2019-01-08T07:11:53.506Z,0.90
2019-01-08T07:12:53.472Z,0.80
2019-01-08T07:13:53.466Z,0.90
2019-01-08T07:14:53.469Z,0.90
2019-01-08T07:15:53.441Z,1.00
2019-01-08T07:16:53.443Z,0.80
2019-01-08T07:17:53.416Z,0.80
2019-01-08T07:18:53.412Z,0.70
2019-01-08T07:19:53.395Z,0.80
2019-01-08T07:20:53.390Z,0.70
2019-01-08T07:21:53.395Z,0.60
2019-01-08T07:22:53.362Z,1.00
2019-01-08T07:23:53.350Z,0.70
2019-01-08T07:24:53.347Z,0.80
2019-01-08T07:25:53.328Z,0.70
2019-01-08T07:26:53.344Z,0.80
2019-01-08T07:27:53.307Z,0.80
2019-01-08T07:28:53.294Z,0.60
2019-01-08T07:29:53.284Z,0.80
2019-01-08T07:30:53.279Z,0.80
2019-01-08T07:31:53.278Z,0.60
2019-01-08T07:32:53.259Z,0.70
2019-01-08T07:33:53.240Z,0.60
2019-01-08T07:34:53.235Z,0.70
2019-01-08T07:35:53.217Z,0.60
2019-01-08T07:36:53.223Z,0.70
2019-01-08T07:37:53.195Z,0.70
2019-01-08T07:38:53.194Z,0.60
2019-01-08T07:39:53.175Z,0.90
2019-01-08T07:40:53.160Z,0.70
2019-01-08T07:41:53.163Z,0.60
2019-01-08T07:42:53.137Z,0.60
2019-01-08T07:43:53.128Z,0.60
2019-01-08T07:44:53.124Z,0.60
2019-01-08T07:45:53.107Z,0.80
2019-01-08T07:46:53.109Z,0.70
2019-01-08T07:47:53.090Z,0.70
2019-01-08T07:48:53.072Z,0.70
2019-01-08T07:49:53.069Z,0.70
2019-01-08T07:50:53.058Z,0.70
2019-01-08T07:51:53.054Z,0.80
2019-01-08T07:52:53.033Z,0.60
2019-01-08T07:53:53.021Z,0.50
2019-01-08T07:54:53.006Z,0.50
2019-01-08T07:55:52.996Z,0.50
2019-01-08T07:56:53.004Z,0.50
2019-01-08T07:57:52.973Z,0.60
2019-01-08T07:58:52.965Z,0.60
2019-01-08T07:59:52.952Z,0.60
2019-01-08T08:00:52.940Z,0.50
2019-01-08T08:01:52.936Z,0.50
2019-01-08T08:02:52.941Z,0.50
2019-01-08T08:03:52.904Z,0.60
2019-01-08T08:04:52.894Z,0.60
2019-01-08T08:05:52.884Z,0.50
2019-01-08T08:06:52.873Z,0.60
2019-01-08T08:07:54.454Z,0.60
2019-01-08T08:08:52.860Z,0.50
2019-01-08T08:09:52.840Z,0.50
2019-01-08T08:10:52.841Z,0.50
2019-01-08T08:11:52.819Z,0.70
2019-01-08T08:12:52.826Z,0.60
2019-01-08T08:13:52.803Z,0.60
2019-01-08T08:14:52.789Z,0.50
2019-01-08T08:15:52.780Z,0.40
2019-01-08T08:16:52.768Z,0.80
2019-01-08T08:17:52.764Z,0.60
2019-01-08T08:18:52.738Z,0.60
2019-01-08T08:19:52.748Z,0.50
2019-01-08T08:20:52.721Z,0.50
2019-01-08T08:21:52.703Z,0.50
2019-01-08T08:22:52.715Z,0.50
2019-01-08T08:23:52.687Z,0.70
2019-01-08T08:24:52.672Z,0.40
2019-01-08T08:25:52.664Z,0.50
2019-01-08T08:26:52.649Z,0.50
2019-01-08T08:27:52.653Z,0.50
2019-01-08T08:28:52.628Z,0.50
2019-01-08T08:29:52.616Z,0.50
2019-01-08T08:30:58.532Z,0.40
2019-01-08T08:31:53.600Z,0.50
2019-01-08T08:32:52.606Z,0.50
2019-01-08T08:33:52.570Z,0.40
2019-01-08T08:34:52.559Z,0.40
2019-01-08T08:35:52.554Z,0.50
2019-01-08T08:36:52.537Z,0.50
2019-01-08T08:37:52.540Z,0.50
2019-01-08T08:38:52.525Z,0.60
2019-01-08T08:39:52.505Z,0.50
2019-01-08T08:40:52.492Z,0.50
2019-01-08T08:41:52.487Z,0.40
2019-01-08T08:42:52.488Z,0.50
2019-01-08T08:43:52.460Z,0.50
2019-01-08T08:44:52.456Z,0.50
2019-01-08T08:45:52.437Z,0.50
2019-01-08T08:46:52.427Z,0.60
2019-01-08T08:47:52.430Z,0.60
2019-01-08T08:48:52.404Z,0.40
2019-01-08T08:49:52.399Z,0.40
2019-01-08T08:50:52.385Z,0.40
2019-01-08T08:51:52.372Z,0.40
2019-01-08T08:52:52.379Z,0.60
2019-01-08T08:53:52.938Z,0.40
2019-01-08T08:54:52.336Z,0.60
2019-01-08T08:55:52.327Z,0.60
2019-01-08T08:56:52.318Z,0.60
2019-01-08T08:57:52.320Z,0.50
2019-01-08T08:58:52.299Z,0.60
2019-01-08T08:59:52.288Z,0.70
2019-01-08T09:00:52.288Z,0.60
2019-01-08T09:01:52.259Z,0.40
2019-01-08T09:02:52.273Z,0.60
2019-01-08T09:03:52.238Z,0.50
2019-01-08T09:04:52.227Z,0.50
2019-01-08T09:05:52.216Z,0.70
2019-01-08T09:06:52.205Z,0.70
2019-01-08T09:07:52.217Z,0.60
2019-01-08T09:08:52.189Z,0.90
2019-01-08T09:09:52.177Z,0.70
2019-01-08T09:10:52.159Z,0.90
2019-01-08T09:11:52.156Z,1.00
2019-01-08T09:12:52.155Z,0.90
2019-01-08T09:13:52.128Z,0.90
2019-01-08T09:14:52.126Z,1.10
2019-01-08T09:15:52.106Z,1.00
2019-01-08T09:16:52.100Z,1.10
2019-01-08T09:17:52.119Z,0.90
2019-01-08T09:18:52.071Z,1.10
2019-01-08T09:19:52.067Z,1.10
2019-01-08T09:20:52.061Z,1.10
2019-01-08T09:21:52.040Z,1.00
2019-01-08T09:22:52.054Z,0.80
2019-01-08T09:23:52.520Z,0.90
2019-01-08T09:24:52.009Z,1.10
2019-01-08T09:25:51.999Z,1.00
2019-01-08T09:26:51.992Z,0.80
2019-01-08T09:27:52.291Z,0.90
2019-01-08T09:28:51.980Z,1.00
2019-01-08T09:29:52.485Z,0.80
2019-01-08T09:30:51.941Z,0.90
2019-01-08T09:31:51.931Z,0.90
2019-01-08T09:32:52.787Z,1.30
2019-01-08T09:33:51.925Z,1.30
2019-01-08T09:34:51.903Z,1.80
2019-01-08T09:35:51.897Z,1.70
2019-01-08T09:36:51.883Z,1.60
2019-01-08T09:37:51.867Z,1.70
2019-01-08T09:38:51.880Z,1.60
2019-01-08T09:39:51.850Z,1.40
2019-01-08T09:40:51.839Z,1.50
2019-01-08T09:41:51.822Z,1.50
2019-01-08T09:42:51.810Z,1.60
2019-01-08T09:43:51.819Z,1.70
2019-01-08T09:44:51.801Z,1.50
2019-01-08T09:45:51.775Z,1.70
2019-01-08T09:46:51.766Z,2.30
2019-01-08T09:47:51.760Z,1.60
2019-01-08T09:48:51.759Z,1.60
2019-01-08T09:49:51.731Z,1.60
2019-01-08T09:50:51.730Z,1.60
2019-01-08T09:51:51.719Z,1.60
2019-01-08T09:52:51.699Z,1.50
2019-01-08T09:53:51.705Z,1.60
2019-01-08T09:54:51.682Z,1.50
2019-01-08T09:55:51.695Z,1.70
2019-01-08T09:56:51.665Z,1.30
2019-01-08T09:57:51.685Z,1.30
2019-01-08T09:58:51.646Z,1.70
2019-01-08T09:59:51.626Z,1.30
2019-01-08T10:00:51.610Z,1.60
2019-01-08T10:01:51.598Z,1.30
2019-01-08T10:02:51.644Z,1.50
2019-01-08T10:03:51.612Z,1.20
2019-01-08T10:04:51.563Z,1.50
2019-01-08T10:05:51.551Z,1.50
2019-01-08T10:06:51.547Z,1.30
2019-01-08T10:07:51.528Z,1.60
2019-01-08T10:08:51.536Z,1.20
2019-01-08T10:09:51.522Z,1.40
2019-01-08T10:10:51.496Z,1.30
2019-01-08T10:11:51.483Z,1.30
2019-01-08T10:12:51.471Z,1.40
2019-01-08T10:13:51.466Z,1.30
2019-01-08T10:14:51.471Z,1.40
2019-01-08T10:15:51.437Z,1.50
2019-01-08T10:16:51.425Z,1.50
2019-01-08T10:17:51.415Z,1.50
2019-01-08T10:18:51.408Z,1.40
2019-01-08T10:19:51.410Z,1.10
2019-01-08T10:20:51.386Z,1.30
2019-01-08T10:21:51.373Z,1.30
2019-01-08T10:22:51.357Z,1.50
2019-01-08T10:23:51.345Z,1.30
2019-01-08T10:24:51.352Z,1.10
2019-01-08T10:25:51.325Z,1.10
2019-01-08T10:26:51.324Z,1.10
2019-01-08T10:27:51.302Z,1.20
2019-01-08T10:28:51.289Z,1.10
2019-01-08T10:29:51.292Z,1.40
2019-01-08T10:30:51.265Z,1.20
2019-01-08T10:31:51.256Z,1.20
2019-01-08T10:32:51.263Z,1.40
2019-01-08T10:33:51.233Z,1.50
2019-01-08T10:34:51.252Z,1.10
2019-01-08T10:35:51.210Z,1.60
2019-01-08T10:36:51.212Z,1.70
2019-01-08T10:37:51.189Z,1.60
2019-01-08T10:38:51.191Z,1.60
2019-01-08T10:39:51.164Z,1.50
2019-01-08T10:40:51.168Z,1.90
2019-01-08T10:41:51.143Z,1.10
2019-01-08T10:42:51.133Z,1.30
2019-01-08T10:43:51.122Z,1.40
2019-01-08T10:44:51.129Z,1.40
2019-01-08T10:45:51.115Z,1.40
2019-01-08T10:46:51.087Z,1.20
2019-01-08T10:47:51.083Z,1.40
2019-01-08T10:48:51.066Z,1.20
2019-01-08T10:49:51.056Z,1.40
2019-01-08T10:50:51.075Z,1.00
2019-01-08T10:51:51.036Z,1.40
2019-01-08T10:52:51.024Z,1.60
2019-01-08T10:53:51.007Z,1.30
2019-01-08T10:54:50.997Z,1.20
2019-01-08T10:55:50.998Z,1.40
2019-01-08T10:56:50.984Z,1.40
2019-01-08T10:57:50.964Z,1.20
2019-01-08T10:58:50.957Z,1.10
2019-01-08T10:59:50.938Z,1.40
2019-01-08T11:00:50.950Z,1.30
2019-01-08T11:01:50.922Z,1.00
2019-01-08T11:02:50.915Z,1.30
2019-01-08T11:03:50.898Z,1.10
2019-01-08T11:04:50.887Z,1.50
2019-01-08T11:05:50.885Z,1.50
2019-01-08T11:06:50.866Z,1.80
2019-01-08T11:07:50.847Z,2.00
2019-01-08T11:08:50.844Z,2.30
2019-01-08T11:09:50.827Z,2.60
2019-01-08T11:10:50.836Z,3.10
2019-01-08T11:11:50.802Z,2.40
2019-01-08T11:12:50.791Z,3.10
2019-01-08T11:13:50.778Z,4.30
2019-01-08T11:14:50.781Z,2.70
2019-01-08T11:15:50.772Z,3.60
2019-01-08T11:16:50.761Z,3.90
2019-01-08T11:17:50.735Z,3.40
2019-01-08T11:18:50.729Z,3.80
2019-01-08T11:19:50.712Z,3.40
2019-01-08T11:20:50.746Z,3.10
2019-01-08T11:21:50.688Z,3.20
2019-01-08T11:22:50.686Z,3.30
2019-01-08T11:23:50.673Z,3.30
2019-01-08T11:24:50.673Z,2.90
2019-01-08T11:25:50.645Z,2.90
2019-01-08T11:26:50.654Z,3.10
2019-01-08T11:27:50.633Z,3.00
2019-01-08T11:28:50.611Z,3.00
2019-01-08T11:29:50.598Z,2.90
2019-01-08T11:30:50.587Z,3.10
2019-01-08T11:31:50.590Z,3.10
2019-01-08T11:32:50.565Z,2.50
2019-01-08T11:33:50.565Z,2.80
2019-01-08T11:34:50.542Z,2.60
2019-01-08T11:35:50.530Z,2.60
2019-01-08T11:36:50.535Z,2.60
2019-01-08T11:37:50.507Z,2.50
2019-01-08T11:38:50.502Z,2.60
2019-01-08T11:39:50.492Z,2.50
2019-01-08T11:40:50.473Z,2.50
2019-01-08T11:41:50.483Z,2.50
2019-01-08T11:42:50.457Z,2.60
2019-01-08T11:43:50.438Z,2.30
2019-01-08T11:44:50.436Z,2.20
2019-01-08T11:45:50.428Z,2.00
2019-01-08T11:46:50.422Z,2.30
2019-01-08T11:47:50.838Z,2.20
2019-01-08T11:48:50.382Z,2.50
2019-01-08T11:49:50.370Z,2.10
2019-01-08T11:50:50.359Z,2.00
2019-01-08T11:51:50.375Z,2.00
2019-01-08T11:52:50.339Z,2.50
2019-01-08T11:53:50.332Z,2.20
2019-01-08T11:54:50.314Z,2.20
2019-01-08T11:55:50.307Z,2.40
2019-01-08T11:56:50.306Z,2.20
2019-01-08T11:57:50.327Z,2.10
2019-01-08T11:58:50.268Z,2.00
2019-01-08T11:59:50.267Z,1.90
2019-01-08T12:00:50.247Z,2.10
2019-01-08T12:01:57.118Z,2.30
2019-01-08T12:02:51.222Z,1.90
2019-01-08T12:03:50.228Z,1.90
2019-01-08T12:04:50.200Z,2.00
2019-01-08T12:05:50.195Z,2.00
2019-01-08T12:06:50.191Z,1.90
2019-01-08T12:07:50.166Z,1.90
2019-01-08T12:08:50.161Z,2.10
2019-01-08T12:09:50.156Z,1.90
2019-01-08T12:10:50.137Z,1.90
2019-01-08T12:11:50.143Z,2.00
2019-01-08T12:12:50.108Z,1.80
2019-01-08T12:13:50.129Z,1.60
2019-01-08T12:14:50.092Z,1.80
2019-01-08T12:15:50.089Z,1.60
2019-01-08T12:16:50.078Z,1.90
2019-01-08T12:17:50.056Z,2.00
2019-01-08T12:18:50.041Z,1.70
2019-01-08T12:19:50.029Z,1.70
2019-01-08T12:20:50.041Z,2.00
2019-01-08T12:21:50.037Z,1.70
2019-01-08T12:22:50.001Z,1.50
2019-01-08T12:23:49.981Z,2.00
2019-01-08T12:24:49.970Z,1.60
2019-01-08T12:25:49.960Z,1.70
2019-01-08T12:26:49.963Z,1.40
2019-01-08T12:27:49.957Z,1.60
2019-01-08T12:28:49.929Z,1.20
2019-01-08T12:29:49.920Z,1.50
2019-01-08T12:30:49.910Z,1.60
2019-01-08T12:31:49.908Z,1.60
2019-01-08T12:32:49.879Z,1.60
2019-01-08T12:33:49.875Z,1.30
2019-01-08T12:34:49.857Z,1.70
2019-01-08T12:35:49.851Z,1.50
2019-01-08T12:36:49.849Z,1.60
2019-01-08T12:37:49.823Z,1.50
2019-01-08T12:38:49.811Z,1.50
2019-01-08T12:39:49.809Z,1.50
2019-01-08T12:40:49.788Z,1.60
2019-01-08T12:41:49.796Z,1.50
2019-01-08T12:42:49.773Z,1.30
2019-01-08T12:43:49.756Z,1.30
2019-01-08T12:44:49.749Z,1.30
2019-01-08T12:45:49.742Z,1.50
2019-01-08T12:46:49.759Z,1.40
2019-01-08T12:47:49.715Z,1.40
2019-01-08T12:48:49.701Z,1.50
2019-01-08T12:49:49.695Z,1.40
2019-01-08T12:50:49.678Z,1.40
2019-01-08T12:51:49.673Z,1.20
2019-01-08T12:52:49.761Z,1.40
2019-01-08T12:53:49.670Z,1.20
2019-01-08T12:54:49.634Z,1.40
2019-01-08T12:55:49.684Z,1.50
2019-01-08T12:56:49.612Z,1.40
2019-01-08T12:57:49.732Z,1.50
2019-01-08T12:58:49.596Z,1.40
2019-01-08T12:59:49.582Z,1.30
2019-01-08T13:00:49.605Z,1.30
2019-01-08T13:01:49.557Z,1.30
2019-01-08T13:02:49.558Z,1.20
2019-01-08T13:03:49.541Z,1.30
2019-01-08T13:04:49.521Z,1.20
2019-01-08T13:05:49.509Z,1.20
2019-01-08T13:06:49.499Z,1.20
2019-01-08T13:07:49.505Z,1.30
2019-01-08T13:08:49.488Z,1.20
2019-01-08T13:09:49.480Z,1.40
2019-01-08T13:10:49.459Z,1.20
2019-01-08T13:11:49.442Z,1.40